Norrie, Wisconsin
Current Conditions -  °F | °C
As of 7:35 PM on Monday 24 Nov 2014 (Local Time) from KAIG Reporting Station
Moderate Snow Moderate Snow  
Wind Chill: 10°   Ceiling: 900
Heat Index: 22°   Visibility: 1mi
Dew Point: 20°   Wind: 13mph
Humidity: 93%   Direction: 340°NNW
Pressure: 29.49"   Gusts: 22mph
Location:  44.9303°N, 89.2097°W
Report Text: KAIG 250135Z AUTO 34011G19KT 1SM SN OVC009 M06/M07 A2949 RMK AO2 T10561066
Loading
Personal Weather Stations






























Interactive Weather Map New forecast layout! Learn more

10-Day Weather Forecast

Advertisements
Track Severe Weather on mobile